Terminal Aerodrome Forecast
Issued by NWS

Current Version | Previous Version | Text Only | Print | Product List | Glossary Off
Versions: 1 2 3 4 5 6 7 8 9 10 11 12

000
FTUS44 KCRP 280500
TAFLRD
TAF
KLRD 280530Z 2806/2906 12008KT P6SM SKC
     FM281000 15006KT 4SM BR FEW010
     FM281600 17010KT P6SM FEW030=

USA.gov is the U.S. government's official web portal to all federal, state and local government web resources and services.